sensor_id;sensor_type;location;lat;lon;timestamp;P1;durP1;ratioP1;P2;durP2;ratioP2
64342;SDS011;50675;53.530;-6.312;2023-05-27T00:02:44;4.45;;;2.13;;
64342;SDS011;50675;53.530;-6.312;2023-05-27T00:10:26;5.55;;;2.47;;
64342;SDS011;50675;53.530;-6.312;2023-05-27T00:17:23;5.15;;;2.80;;
64342;SDS011;50675;53.530;-6.312;2023-05-27T00:20:02;4.25;;;2.05;;
64342;SDS011;50675;53.530;-6.312;2023-05-27T00:31:33;7.10;;;2.55;;
64342;SDS011;50675;53.530;-6.312;2023-05-27T00:34:53;3.88;;;2.08;;
64342;SDS011;50675;53.530;-6.312;2023-05-27T00:38:25;4.38;;;2.20;;
64342;SDS011;50675;53.530;-6.312;2023-05-27T00:45:11;4.38;;;2.40;;
64342;SDS011;50675;53.530;-6.312;2023-05-27T00:49:12;10.18;;;3.50;;
64342;SDS011;50675;53.530;-6.312;2023-05-27T00:52:30;13.55;;;4.70;;
64342;SDS011;50675;53.530;-6.312;2023-05-27T01:00:31;8.13;;;4.05;;
64342;SDS011;50675;53.530;-6.312;2023-05-27T01:04:02;9.90;;;4.00;;
64342;SDS011;50675;53.530;-6.312;2023-05-27T01:07:22;8.10;;;4.53;;
64342;SDS011;50675;53.530;-6.312;2023-05-27T01:15:39;9.70;;;4.35;;
64342;SDS011;50675;53.530;-6.312;2023-05-27T01:21:29;8.35;;;4.20;;
64342;SDS011;50675;53.530;-6.312;2023-05-27T01:24:19;12.02;;;4.10;;
64342;SDS011;50675;53.530;-6.312;2023-05-27T01:27:05;9.85;;;3.20;;
64342;SDS011;50675;53.530;-6.312;2023-05-27T01:33:42;7.03;;;2.88;;
64342;SDS011;50675;53.530;-6.312;2023-05-27T01:37:04;5.07;;;3.00;;
64342;SDS011;50675;53.530;-6.312;2023-05-27T01:39:35;7.10;;;3.03;;
64342;SDS011;50675;53.530;-6.312;2023-05-27T01:42:05;7.40;;;3.00;;
64342;SDS011;50675;53.530;-6.312;2023-05-27T01:44:32;6.35;;;2.78;;
64342;SDS011;50675;53.530;-6.312;2023-05-27T01:47:20;6.93;;;2.95;;
64342;SDS011;50675;53.530;-6.312;2023-05-27T01:49:49;5.68;;;2.22;;
64342;SDS011;50675;53.530;-6.312;2023-05-27T01:52:17;5.63;;;2.28;;
64342;SDS011;50675;53.530;-6.312;2023-05-27T01:54:43;5.18;;;2.30;;
64342;SDS011;50675;53.530;-6.312;2023-05-27T01:57:12;4.53;;;2.13;;
64342;SDS011;50675;53.530;-6.312;2023-05-27T01:59:41;3.67;;;2.03;;
64342;SDS011;50675;53.530;-6.312;2023-05-27T02:02:10;5.05;;;2.20;;
64342;SDS011;50675;53.530;-6.312;2023-05-27T02:04:49;3.83;;;1.75;;
64342;SDS011;50675;53.530;-6.312;2023-05-27T02:07:18;5.10;;;2.08;;
64342;SDS011;50675;53.530;-6.312;2023-05-27T02:09:46;4.28;;;2.08;;
64342;SDS011;50675;53.530;-6.312;2023-05-27T02:12:25;4.50;;;2.10;;
64342;SDS011;50675;53.530;-6.312;2023-05-27T02:14:59;3.97;;;2.15;;
64342;SDS011;50675;53.530;-6.312;2023-05-27T02:17:31;3.13;;;2.03;;
64342;SDS011;50675;53.530;-6.312;2023-05-27T02:20:30;3.22;;;1.58;;
64342;SDS011;50675;53.530;-6.312;2023-05-27T02:23:32;3.22;;;1.50;;
64342;SDS011;50675;53.530;-6.312;2023-05-27T02:26:05;3.83;;;1.95;;
64342;SDS011;50675;53.530;-6.312;2023-05-27T02:28:37;4.10;;;2.00;;
64342;SDS011;50675;53.530;-6.312;2023-05-27T02:31:11;5.82;;;2.25;;
64342;SDS011;50675;53.530;-6.312;2023-05-27T02:33:40;4.10;;;2.30;;
64342;SDS011;50675;53.530;-6.312;2023-05-27T02:39:18;4.35;;;2.22;;
64342;SDS011;50675;53.530;-6.312;2023-05-27T02:42:04;4.38;;;2.30;;
64342;SDS011;50675;53.530;-6.312;2023-05-27T02:48:30;5.05;;;2.03;;
64342;SDS011;50675;53.530;-6.312;2023-05-27T02:51:23;4.38;;;2.08;;
64342;SDS011;50675;53.530;-6.312;2023-05-27T02:57:42;4.70;;;1.90;;
64342;SDS011;50675;53.530;-6.312;2023-05-27T03:04:01;3.53;;;1.73;;
64342;SDS011;50675;53.530;-6.312;2023-05-27T03:06:32;5.47;;;2.00;;
64342;SDS011;50675;53.530;-6.312;2023-05-27T03:09:44;4.88;;;1.98;;
64342;SDS011;50675;53.530;-6.312;2023-05-27T03:12:24;3.10;;;1.45;;
64342;SDS011;50675;53.530;-6.312;2023-05-27T03:19:10;2.97;;;1.70;;
64342;SDS011;50675;53.530;-6.312;2023-05-27T03:22:19;3.92;;;1.88;;
64342;SDS011;50675;53.530;-6.312;2023-05-27T03:25:10;2.25;;;1.27;;
64342;SDS011;50675;53.530;-6.312;2023-05-27T03:28:19;3.55;;;1.60;;
64342;SDS011;50675;53.530;-6.312;2023-05-27T03:31:56;2.55;;;1.35;;
64342;SDS011;50675;53.530;-6.312;2023-05-27T03:38:38;1.73;;;1.33;;
64342;SDS011;50675;53.530;-6.312;2023-05-27T03:48:44;4.03;;;1.35;;
64342;SDS011;50675;53.530;-6.312;2023-05-27T03:55:28;5.18;;;1.83;;
64342;SDS011;50675;53.530;-6.312;2023-05-27T03:58:40;6.25;;;2.22;;
64342;SDS011;50675;53.530;-6.312;2023-05-27T04:01:32;3.78;;;1.90;;
64342;SDS011;50675;53.530;-6.312;2023-05-27T04:04:47;4.38;;;2.20;;
64342;SDS011;50675;53.530;-6.312;2023-05-27T04:07:26;4.30;;;2.08;;
64342;SDS011;50675;53.530;-6.312;2023-05-27T04:10:03;3.67;;;1.73;;
64342;SDS011;50675;53.530;-6.312;2023-05-27T04:13:13;3.80;;;1.65;;
64342;SDS011;50675;53.530;-6.312;2023-05-27T04:15:52;3.70;;;2.00;;
64342;SDS011;50675;53.530;-6.312;2023-05-27T04:22:00;4.18;;;1.70;;
64342;SDS011;50675;53.530;-6.312;2023-05-27T04:27:51;3.38;;;1.75;;
64342;SDS011;50675;53.530;-6.312;2023-05-27T04:31:09;3.20;;;1.77;;
64342;SDS011;50675;53.530;-6.312;2023-05-27T04:34:16;3.55;;;1.60;;
64342;SDS011;50675;53.530;-6.312;2023-05-27T04:37:27;3.67;;;2.13;;
64342;SDS011;50675;53.530;-6.312;2023-05-27T04:39:54;1.52;;;1.13;;
64342;SDS011;50675;53.530;-6.312;2023-05-27T04:42:22;5.10;;;1.92;;
64342;SDS011;50675;53.530;-6.312;2023-05-27T04:44:49;3.33;;;1.60;;
64342;SDS011;50675;53.530;-6.312;2023-05-27T04:47:16;2.15;;;1.30;;
64342;SDS011;50675;53.530;-6.312;2023-05-27T04:49:42;2.10;;;1.48;;
64342;SDS011;50675;53.530;-6.312;2023-05-27T04:52:12;3.40;;;1.52;;
64342;SDS011;50675;53.530;-6.312;2023-05-27T04:54:38;3.13;;;1.63;;
64342;SDS011;50675;53.530;-6.312;2023-05-27T04:57:04;2.58;;;1.60;;
64342;SDS011;50675;53.530;-6.312;2023-05-27T04:59:29;2.78;;;1.63;;
64342;SDS011;50675;53.530;-6.312;2023-05-27T05:02:15;2.42;;;1.70;;
64342;SDS011;50675;53.530;-6.312;2023-05-27T05:04:47;3.50;;;1.73;;
64342;SDS011;50675;53.530;-6.312;2023-05-27T05:07:13;2.40;;;1.25;;
64342;SDS011;50675;53.530;-6.312;2023-05-27T05:09:39;2.00;;;1.48;;
64342;SDS011;50675;53.530;-6.312;2023-05-27T05:12:05;3.58;;;1.70;;
64342;SDS011;50675;53.530;-6.312;2023-05-27T05:14:31;2.85;;;1.65;;
64342;SDS011;50675;53.530;-6.312;2023-05-27T05:16:57;2.88;;;1.80;;
64342;SDS011;50675;53.530;-6.312;2023-05-27T05:19:23;2.53;;;1.63;;
64342;SDS011;50675;53.530;-6.312;2023-05-27T05:21:49;3.47;;;1.63;;
64342;SDS011;50675;53.530;-6.312;2023-05-27T05:24:15;4.68;;;2.28;;
64342;SDS011;50675;53.530;-6.312;2023-05-27T05:26:40;3.20;;;1.63;;
64342;SDS011;50675;53.530;-6.312;2023-05-27T05:29:13;3.15;;;1.67;;
64342;SDS011;50675;53.530;-6.312;2023-05-27T05:31:39;3.38;;;1.83;;
64342;SDS011;50675;53.530;-6.312;2023-05-27T05:34:06;3.47;;;1.70;;
64342;SDS011;50675;53.530;-6.312;2023-05-27T05:36:32;4.85;;;1.75;;
64342;SDS011;50675;53.530;-6.312;2023-05-27T05:38:59;3.45;;;1.58;;
64342;SDS011;50675;53.530;-6.312;2023-05-27T05:41:25;3.88;;;1.67;;
64342;SDS011;50675;53.530;-6.312;2023-05-27T05:43:51;3.10;;;1.95;;
64342;SDS011;50675;53.530;-6.312;2023-05-27T05:46:17;5.35;;;1.73;;
64342;SDS011;50675;53.530;-6.312;2023-05-27T05:48:42;3.88;;;2.03;;
64342;SDS011;50675;53.530;-6.312;2023-05-27T05:51:08;3.28;;;1.80;;
64342;SDS011;50675;53.530;-6.312;2023-05-27T05:53:34;2.88;;;1.67;;
64342;SDS011;50675;53.530;-6.312;2023-05-27T05:56:00;2.25;;;1.70;;
64342;SDS011;50675;53.530;-6.312;2023-05-27T05:58:26;3.08;;;1.60;;
64342;SDS011;50675;53.530;-6.312;2023-05-27T06:00:51;2.75;;;1.65;;
64342;SDS011;50675;53.530;-6.312;2023-05-27T06:03:17;2.78;;;1.65;;
64342;SDS011;50675;53.530;-6.312;2023-05-27T06:05:43;3.00;;;1.60;;
64342;SDS011;50675;53.530;-6.312;2023-05-27T06:08:09;4.72;;;1.95;;
64342;SDS011;50675;53.530;-6.312;2023-05-27T06:10:34;4.70;;;1.98;;
64342;SDS011;50675;53.530;-6.312;2023-05-27T06:13:00;4.85;;;1.98;;
64342;SDS011;50675;53.530;-6.312;2023-05-27T06:15:26;5.28;;;2.00;;
64342;SDS011;50675;53.530;-6.312;2023-05-27T06:17:52;5.07;;;1.83;;
64342;SDS011;50675;53.530;-6.312;2023-05-27T06:20:19;4.38;;;2.45;;
64342;SDS011;50675;53.530;-6.312;2023-05-27T06:22:45;6.53;;;2.03;;
64342;SDS011;50675;53.530;-6.312;2023-05-27T06:25:12;4.68;;;1.98;;
64342;SDS011;50675;53.530;-6.312;2023-05-27T06:27:38;6.82;;;2.40;;
64342;SDS011;50675;53.530;-6.312;2023-05-27T06:30:05;5.40;;;2.30;;
64342;SDS011;50675;53.530;-6.312;2023-05-27T06:32:31;7.38;;;2.53;;
64342;SDS011;50675;53.530;-6.312;2023-05-27T06:34:57;6.05;;;2.20;;
64342;SDS011;50675;53.530;-6.312;2023-05-27T06:37:23;4.90;;;2.20;;
64342;SDS011;50675;53.530;-6.312;2023-05-27T06:39:49;5.63;;;2.70;;
64342;SDS011;50675;53.530;-6.312;2023-05-27T06:42:15;4.18;;;2.20;;
64342;SDS011;50675;53.530;-6.312;2023-05-27T06:44:41;4.95;;;2.30;;
64342;SDS011;50675;53.530;-6.312;2023-05-27T06:47:07;8.23;;;2.28;;
64342;SDS011;50675;53.530;-6.312;2023-05-27T06:49:33;4.20;;;2.20;;
64342;SDS011;50675;53.530;-6.312;2023-05-27T06:51:59;5.60;;;2.47;;
64342;SDS011;50675;53.530;-6.312;2023-05-27T06:54:25;5.72;;;2.20;;
64342;SDS011;50675;53.530;-6.312;2023-05-27T06:56:50;4.13;;;2.17;;
64342;SDS011;50675;53.530;-6.312;2023-05-27T06:59:16;4.65;;;2.00;;
64342;SDS011;50675;53.530;-6.312;2023-05-27T07:01:42;7.90;;;2.42;;
64342;SDS011;50675;53.530;-6.312;2023-05-27T07:04:09;4.80;;;2.28;;
64342;SDS011;50675;53.530;-6.312;2023-05-27T07:06:34;5.60;;;2.33;;
64342;SDS011;50675;53.530;-6.312;2023-05-27T07:09:02;4.47;;;2.08;;
64342;SDS011;50675;53.530;-6.312;2023-05-27T07:11:28;4.82;;;2.10;;
64342;SDS011;50675;53.530;-6.312;2023-05-27T07:13:54;5.40;;;2.42;;
64342;SDS011;50675;53.530;-6.312;2023-05-27T07:16:20;5.80;;;2.15;;
64342;SDS011;50675;53.530;-6.312;2023-05-27T07:18:46;5.80;;;1.88;;
64342;SDS011;50675;53.530;-6.312;2023-05-27T07:21:12;4.65;;;1.98;;
64342;SDS011;50675;53.530;-6.312;2023-05-27T07:23:38;5.22;;;2.40;;
64342;SDS011;50675;53.530;-6.312;2023-05-27T07:26:04;7.70;;;2.10;;
64342;SDS011;50675;53.530;-6.312;2023-05-27T07:28:30;5.22;;;2.15;;
64342;SDS011;50675;53.530;-6.312;2023-05-27T07:30:57;7.20;;;2.30;;
64342;SDS011;50675;53.530;-6.312;2023-05-27T07:33:23;5.50;;;1.95;;
64342;SDS011;50675;53.530;-6.312;2023-05-27T07:35:49;5.63;;;2.53;;
64342;SDS011;50675;53.530;-6.312;2023-05-27T07:38:15;4.68;;;1.98;;
64342;SDS011;50675;53.530;-6.312;2023-05-27T07:40:41;3.33;;;1.83;;
64342;SDS011;50675;53.530;-6.312;2023-05-27T07:43:07;3.38;;;2.05;;
64342;SDS011;50675;53.530;-6.312;2023-05-27T07:45:33;5.72;;;2.20;;
64342;SDS011;50675;53.530;-6.312;2023-05-27T07:51:37;6.32;;;2.10;;
64342;SDS011;50675;53.530;-6.312;2023-05-27T07:54:03;3.25;;;2.00;;
64342;SDS011;50675;53.530;-6.312;2023-05-27T07:56:29;4.40;;;1.80;;
64342;SDS011;50675;53.530;-6.312;2023-05-27T07:58:55;2.78;;;1.60;;
64342;SDS011;50675;53.530;-6.312;2023-05-27T08:01:21;4.25;;;1.80;;
64342;SDS011;50675;53.530;-6.312;2023-05-27T08:03:47;5.95;;;1.90;;
64342;SDS011;50675;53.530;-6.312;2023-05-27T08:06:13;3.67;;;1.90;;
64342;SDS011;50675;53.530;-6.312;2023-05-27T08:08:39;4.70;;;1.98;;
64342;SDS011;50675;53.530;-6.312;2023-05-27T08:11:05;6.55;;;2.30;;
64342;SDS011;50675;53.530;-6.312;2023-05-27T08:13:36;3.65;;;2.00;;
64342;SDS011;50675;53.530;-6.312;2023-05-27T08:16:02;5.00;;;1.85;;
64342;SDS011;50675;53.530;-6.312;2023-05-27T08:18:28;5.47;;;2.08;;
64342;SDS011;50675;53.530;-6.312;2023-05-27T08:20:54;4.95;;;1.90;;
64342;SDS011;50675;53.530;-6.312;2023-05-27T08:23:20;2.58;;;1.30;;
64342;SDS011;50675;53.530;-6.312;2023-05-27T08:25:46;3.53;;;1.52;;
64342;SDS011;50675;53.530;-6.312;2023-05-27T08:28:11;3.45;;;1.80;;
64342;SDS011;50675;53.530;-6.312;2023-05-27T08:30:37;3.70;;;1.90;;
64342;SDS011;50675;53.530;-6.312;2023-05-27T08:33:03;3.20;;;1.70;;
64342;SDS011;50675;53.530;-6.312;2023-05-27T08:35:29;3.88;;;1.65;;
64342;SDS011;50675;53.530;-6.312;2023-05-27T08:37:55;3.22;;;1.40;;
64342;SDS011;50675;53.530;-6.312;2023-05-27T08:40:21;2.90;;;1.75;;
64342;SDS011;50675;53.530;-6.312;2023-05-27T08:42:47;4.20;;;2.00;;
64342;SDS011;50675;53.530;-6.312;2023-05-27T08:45:13;3.05;;;1.50;;
64342;SDS011;50675;53.530;-6.312;2023-05-27T08:47:40;4.68;;;1.70;;
64342;SDS011;50675;53.530;-6.312;2023-05-27T08:50:06;5.07;;;1.45;;
64342;SDS011;50675;53.530;-6.312;2023-05-27T08:52:33;5.03;;;1.77;;
64342;SDS011;50675;53.530;-6.312;2023-05-27T08:55:00;4.70;;;1.75;;
64342;SDS011;50675;53.530;-6.312;2023-05-27T08:57:29;4.70;;;1.50;;
64342;SDS011;50675;53.530;-6.312;2023-05-27T08:59:57;3.78;;;1.63;;
64342;SDS011;50675;53.530;-6.312;2023-05-27T09:02:23;4.20;;;1.80;;
64342;SDS011;50675;53.530;-6.312;2023-05-27T09:04:50;3.78;;;2.00;;
64342;SDS011;50675;53.530;-6.312;2023-05-27T09:07:17;3.22;;;1.73;;
64342;SDS011;50675;53.530;-6.312;2023-05-27T09:09:54;6.25;;;1.73;;
64342;SDS011;50675;53.530;-6.312;2023-05-27T09:12:24;4.75;;;2.00;;
64342;SDS011;50675;53.530;-6.312;2023-05-27T09:14:51;6.05;;;2.10;;
64342;SDS011;50675;53.530;-6.312;2023-05-27T09:17:17;4.57;;;1.80;;
64342;SDS011;50675;53.530;-6.312;2023-05-27T09:19:46;4.18;;;2.22;;
64342;SDS011;50675;53.530;-6.312;2023-05-27T09:24:57;2.90;;;1.50;;
64342;SDS011;50675;53.530;-6.312;2023-05-27T09:27:26;2.95;;;1.70;;
64342;SDS011;50675;53.530;-6.312;2023-05-27T09:29:53;3.45;;;2.05;;
64342;SDS011;50675;53.530;-6.312;2023-05-27T09:32:26;3.60;;;1.42;;
64342;SDS011;50675;53.530;-6.312;2023-05-27T09:34:54;2.80;;;1.40;;
64342;SDS011;50675;53.530;-6.312;2023-05-27T09:37:24;8.40;;;1.90;;
64342;SDS011;50675;53.530;-6.312;2023-05-27T09:39:53;4.32;;;2.10;;
64342;SDS011;50675;53.530;-6.312;2023-05-27T09:42:19;5.63;;;1.80;;
64342;SDS011;50675;53.530;-6.312;2023-05-27T09:44:46;3.85;;;1.50;;
64342;SDS011;50675;53.530;-6.312;2023-05-27T09:47:13;4.03;;;1.50;;
64342;SDS011;50675;53.530;-6.312;2023-05-27T09:49:46;3.30;;;1.40;;
64342;SDS011;50675;53.530;-6.312;2023-05-27T09:52:14;2.25;;;1.45;;
64342;SDS011;50675;53.530;-6.312;2023-05-27T09:54:44;7.72;;;2.20;;
64342;SDS011;50675;53.530;-6.312;2023-05-27T09:57:10;4.38;;;1.90;;
64342;SDS011;50675;53.530;-6.312;2023-05-27T09:59:36;7.40;;;1.98;;
64342;SDS011;50675;53.530;-6.312;2023-05-27T10:02:03;4.93;;;1.98;;
64342;SDS011;50675;53.530;-6.312;2023-05-27T10:04:31;4.80;;;1.88;;
64342;SDS011;50675;53.530;-6.312;2023-05-27T10:06:58;3.03;;;1.60;;
64342;SDS011;50675;53.530;-6.312;2023-05-27T10:09:25;3.05;;;1.75;;
64342;SDS011;50675;53.530;-6.312;2023-05-27T10:11:52;4.28;;;1.98;;
64342;SDS011;50675;53.530;-6.312;2023-05-27T10:14:18;5.93;;;2.28;;
64342;SDS011;50675;53.530;-6.312;2023-05-27T10:17:06;5.85;;;2.00;;
64342;SDS011;50675;53.530;-6.312;2023-05-27T10:19:31;4.00;;;1.70;;
64342;SDS011;50675;53.530;-6.312;2023-05-27T10:22:06;3.85;;;1.75;;
64342;SDS011;50675;53.530;-6.312;2023-05-27T10:24:33;3.78;;;1.90;;
64342;SDS011;50675;53.530;-6.312;2023-05-27T10:27:00;4.75;;;2.03;;
64342;SDS011;50675;53.530;-6.312;2023-05-27T10:29:34;5.35;;;2.08;;
64342;SDS011;50675;53.530;-6.312;2023-05-27T10:32:03;3.97;;;1.98;;
64342;SDS011;50675;53.530;-6.312;2023-05-27T10:34:42;4.40;;;1.90;;
64342;SDS011;50675;53.530;-6.312;2023-05-27T10:37:09;4.88;;;1.90;;
64342;SDS011;50675;53.530;-6.312;2023-05-27T10:39:36;5.25;;;1.90;;
64342;SDS011;50675;53.530;-6.312;2023-05-27T10:42:02;3.78;;;1.80;;
64342;SDS011;50675;53.530;-6.312;2023-05-27T10:44:29;8.15;;;2.33;;
64342;SDS011;50675;53.530;-6.312;2023-05-27T10:47:02;4.57;;;2.15;;
64342;SDS011;50675;53.530;-6.312;2023-05-27T10:49:50;5.22;;;1.80;;
64342;SDS011;50675;53.530;-6.312;2023-05-27T10:52:16;4.45;;;2.03;;
64342;SDS011;50675;53.530;-6.312;2023-05-27T10:54:43;4.50;;;2.45;;
64342;SDS011;50675;53.530;-6.312;2023-05-27T10:57:14;3.90;;;1.80;;
64342;SDS011;50675;53.530;-6.312;2023-05-27T10:59:53;5.03;;;2.05;;
64342;SDS011;50675;53.530;-6.312;2023-05-27T11:02:21;4.40;;;1.90;;
64342;SDS011;50675;53.530;-6.312;2023-05-27T11:04:50;3.40;;;2.00;;
64342;SDS011;50675;53.530;-6.312;2023-05-27T11:07:17;3.88;;;1.75;;
64342;SDS011;50675;53.530;-6.312;2023-05-27T11:12:14;4.07;;;1.85;;
64342;SDS011;50675;53.530;-6.312;2023-05-27T11:14:47;2.85;;;1.65;;
64342;SDS011;50675;53.530;-6.312;2023-05-27T11:17:14;5.80;;;2.05;;
64342;SDS011;50675;53.530;-6.312;2023-05-27T11:19:41;5.38;;;2.40;;
64342;SDS011;50675;53.530;-6.312;2023-05-27T11:22:08;4.50;;;2.30;;
64342;SDS011;50675;53.530;-6.312;2023-05-27T11:24:37;5.60;;;2.20;;
64342;SDS011;50675;53.530;-6.312;2023-05-27T11:27:10;4.43;;;2.00;;
64342;SDS011;50675;53.530;-6.312;2023-05-27T11:29:37;4.32;;;2.15;;
64342;SDS011;50675;53.530;-6.312;2023-05-27T11:32:04;4.65;;;1.83;;
64342;SDS011;50675;53.530;-6.312;2023-05-27T11:34:33;7.55;;;2.33;;
64342;SDS011;50675;53.530;-6.312;2023-05-27T11:37:03;5.10;;;2.53;;
64342;SDS011;50675;53.530;-6.312;2023-05-27T11:39:30;6.97;;;2.50;;
64342;SDS011;50675;53.530;-6.312;2023-05-27T11:41:56;6.20;;;2.75;;
64342;SDS011;50675;53.530;-6.312;2023-05-27T11:44:23;6.18;;;2.67;;
64342;SDS011;50675;53.530;-6.312;2023-05-27T11:46:51;6.55;;;2.72;;
64342;SDS011;50675;53.530;-6.312;2023-05-27T11:49:18;5.82;;;2.60;;
64342;SDS011;50675;53.530;-6.312;2023-05-27T11:51:49;6.32;;;2.35;;
64342;SDS011;50675;53.530;-6.312;2023-05-27T11:54:19;4.90;;;2.50;;
64342;SDS011;50675;53.530;-6.312;2023-05-27T11:56:48;5.93;;;2.35;;
64342;SDS011;50675;53.530;-6.312;2023-05-27T11:59:14;4.50;;;2.33;;
64342;SDS011;50675;53.530;-6.312;2023-05-27T12:01:41;5.93;;;2.78;;
64342;SDS011;50675;53.530;-6.312;2023-05-27T12:04:07;6.97;;;2.70;;
64342;SDS011;50675;53.530;-6.312;2023-05-27T12:06:33;5.35;;;2.63;;
64342;SDS011;50675;53.530;-6.312;2023-05-27T12:09:01;6.88;;;2.92;;
64342;SDS011;50675;53.530;-6.312;2023-05-27T12:11:28;7.32;;;2.70;;
64342;SDS011;50675;53.530;-6.312;2023-05-27T12:13:54;4.97;;;2.50;;
64342;SDS011;50675;53.530;-6.312;2023-05-27T12:16:20;6.53;;;2.80;;
64342;SDS011;50675;53.530;-6.312;2023-05-27T12:18:45;5.93;;;2.90;;
64342;SDS011;50675;53.530;-6.312;2023-05-27T12:21:11;7.88;;;2.92;;
64342;SDS011;50675;53.530;-6.312;2023-05-27T12:23:37;5.90;;;2.80;;
64342;SDS011;50675;53.530;-6.312;2023-05-27T12:26:03;6.57;;;2.80;;
64342;SDS011;50675;53.530;-6.312;2023-05-27T12:28:29;8.10;;;2.85;;
64342;SDS011;50675;53.530;-6.312;2023-05-27T12:30:55;6.60;;;2.50;;
64342;SDS011;50675;53.530;-6.312;2023-05-27T12:33:21;8.18;;;3.00;;
64342;SDS011;50675;53.530;-6.312;2023-05-27T12:35:47;6.45;;;3.03;;
64342;SDS011;50675;53.530;-6.312;2023-05-27T12:38:13;6.90;;;3.10;;
64342;SDS011;50675;53.530;-6.312;2023-05-27T12:40:39;9.18;;;3.30;;
64342;SDS011;50675;53.530;-6.312;2023-05-27T12:43:04;7.93;;;2.83;;
64342;SDS011;50675;53.530;-6.312;2023-05-27T12:45:30;9.18;;;3.05;;
64342;SDS011;50675;53.530;-6.312;2023-05-27T12:47:57;9.95;;;3.40;;
64342;SDS011;50675;53.530;-6.312;2023-05-27T12:50:24;8.85;;;3.22;;
64342;SDS011;50675;53.530;-6.312;2023-05-27T12:52:49;12.35;;;3.17;;
64342;SDS011;50675;53.530;-6.312;2023-05-27T12:55:17;8.38;;;3.25;;
64342;SDS011;50675;53.530;-6.312;2023-05-27T12:57:44;7.30;;;3.40;;
64342;SDS011;50675;53.530;-6.312;2023-05-27T13:00:14;10.23;;;2.95;;
64342;SDS011;50675;53.530;-6.312;2023-05-27T13:02:42;5.72;;;2.88;;
64342;SDS011;50675;53.530;-6.312;2023-05-27T13:05:08;8.27;;;3.35;;
64342;SDS011;50675;53.530;-6.312;2023-05-27T13:07:35;6.78;;;3.45;;
64342;SDS011;50675;53.530;-6.312;2023-05-27T13:10:03;7.32;;;2.83;;
64342;SDS011;50675;53.530;-6.312;2023-05-27T13:12:31;5.55;;;2.70;;
64342;SDS011;50675;53.530;-6.312;2023-05-27T13:14:58;6.32;;;3.17;;
64342;SDS011;50675;53.530;-6.312;2023-05-27T13:17:25;6.40;;;3.10;;
64342;SDS011;50675;53.530;-6.312;2023-05-27T13:19:51;6.25;;;2.70;;
64342;SDS011;50675;53.530;-6.312;2023-05-27T13:22:17;6.80;;;3.35;;
64342;SDS011;50675;53.530;-6.312;2023-05-27T13:24:43;4.80;;;2.83;;
64342;SDS011;50675;53.530;-6.312;2023-05-27T13:27:08;6.50;;;2.50;;
64342;SDS011;50675;53.530;-6.312;2023-05-27T13:29:34;6.18;;;2.95;;
64342;SDS011;50675;53.530;-6.312;2023-05-27T13:32:01;8.85;;;3.00;;
64342;SDS011;50675;53.530;-6.312;2023-05-27T13:34:27;5.88;;;3.00;;
64342;SDS011;50675;53.530;-6.312;2023-05-27T13:36:55;5.40;;;2.30;;
64342;SDS011;50675;53.530;-6.312;2023-05-27T13:39:21;6.28;;;2.60;;
64342;SDS011;50675;53.530;-6.312;2023-05-27T13:41:47;5.35;;;2.60;;
64342;SDS011;50675;53.530;-6.312;2023-05-27T13:44:14;6.45;;;2.42;;
64342;SDS011;50675;53.530;-6.312;2023-05-27T13:46:40;5.10;;;2.20;;
64342;SDS011;50675;53.530;-6.312;2023-05-27T13:49:06;5.32;;;2.45;;
64342;SDS011;50675;53.530;-6.312;2023-05-27T13:51:32;3.28;;;2.08;;
64342;SDS011;50675;53.530;-6.312;2023-05-27T13:53:58;4.53;;;2.20;;
64342;SDS011;50675;53.530;-6.312;2023-05-27T13:56:24;4.45;;;2.40;;
64342;SDS011;50675;53.530;-6.312;2023-05-27T13:58:51;6.10;;;2.47;;
64342;SDS011;50675;53.530;-6.312;2023-05-27T14:01:30;5.50;;;2.60;;
64342;SDS011;50675;53.530;-6.312;2023-05-27T14:04:07;4.47;;;2.33;;
64342;SDS011;50675;53.530;-6.312;2023-05-27T14:06:54;4.57;;;2.35;;
64342;SDS011;50675;53.530;-6.312;2023-05-27T14:09:22;5.80;;;2.30;;
64342;SDS011;50675;53.530;-6.312;2023-05-27T14:11:48;5.63;;;2.70;;
64342;SDS011;50675;53.530;-6.312;2023-05-27T14:14:14;5.47;;;2.70;;
64342;SDS011;50675;53.530;-6.312;2023-05-27T14:16:48;6.68;;;2.60;;
64342;SDS011;50675;53.530;-6.312;2023-05-27T14:22:26;6.00;;;2.50;;
64342;SDS011;50675;53.530;-6.312;2023-05-27T14:25:08;5.35;;;2.40;;
64342;SDS011;50675;53.530;-6.312;2023-05-27T14:27:40;4.55;;;2.22;;
64342;SDS011;50675;53.530;-6.312;2023-05-27T14:30:14;5.35;;;2.47;;
64342;SDS011;50675;53.530;-6.312;2023-05-27T14:36:06;4.10;;;2.20;;
64342;SDS011;50675;53.530;-6.312;2023-05-27T15:09:22;3.90;;;2.05;;
64342;SDS011;50675;53.530;-6.312;2023-05-27T15:11:48;3.47;;;1.90;;
64342;SDS011;50675;53.530;-6.312;2023-05-27T15:14:15;6.35;;;2.75;;
64342;SDS011;50675;53.530;-6.312;2023-05-27T15:16:40;5.82;;;2.17;;
64342;SDS011;50675;53.530;-6.312;2023-05-27T15:19:06;3.03;;;1.88;;
64342;SDS011;50675;53.530;-6.312;2023-05-27T15:21:31;3.97;;;2.25;;
64342;SDS011;50675;53.530;-6.312;2023-05-27T15:23:58;4.78;;;2.15;;
64342;SDS011;50675;53.530;-6.312;2023-05-27T15:26:23;6.05;;;2.10;;
64342;SDS011;50675;53.530;-6.312;2023-05-27T15:28:49;4.78;;;2.35;;
64342;SDS011;50675;53.530;-6.312;2023-05-27T15:31:15;8.88;;;2.80;;
64342;SDS011;50675;53.530;-6.312;2023-05-27T15:33:41;5.65;;;2.67;;
64342;SDS011;50675;53.530;-6.312;2023-05-27T15:36:06;5.20;;;2.42;;
64342;SDS011;50675;53.530;-6.312;2023-05-27T15:38:33;8.25;;;2.55;;
64342;SDS011;50675;53.530;-6.312;2023-05-27T15:40:58;5.20;;;2.05;;
64342;SDS011;50675;53.530;-6.312;2023-05-27T15:43:24;5.07;;;2.92;;
64342;SDS011;50675;53.530;-6.312;2023-05-27T15:45:50;7.25;;;2.78;;
64342;SDS011;50675;53.530;-6.312;2023-05-27T15:48:16;5.18;;;2.30;;
64342;SDS011;50675;53.530;-6.312;2023-05-27T15:50:42;9.25;;;2.60;;
64342;SDS011;50675;53.530;-6.312;2023-05-27T15:53:08;7.88;;;2.65;;
64342;SDS011;50675;53.530;-6.312;2023-05-27T15:55:33;16.65;;;3.38;;
64342;SDS011;50675;53.530;-6.312;2023-05-27T15:58:00;7.85;;;2.58;;
64342;SDS011;50675;53.530;-6.312;2023-05-27T16:00:26;6.13;;;2.83;;
64342;SDS011;50675;53.530;-6.312;2023-05-27T16:02:52;11.65;;;4.40;;
64342;SDS011;50675;53.530;-6.312;2023-05-27T16:05:17;5.85;;;2.50;;
64342;SDS011;50675;53.530;-6.312;2023-05-27T16:07:43;4.93;;;2.38;;
64342;SDS011;50675;53.530;-6.312;2023-05-27T16:10:09;5.72;;;2.28;;
64342;SDS011;50675;53.530;-6.312;2023-05-27T16:12:35;5.50;;;2.30;;
64342;SDS011;50675;53.530;-6.312;2023-05-27T16:15:02;3.88;;;2.00;;
64342;SDS011;50675;53.530;-6.312;2023-05-27T16:17:29;4.10;;;2.08;;
64342;SDS011;50675;53.530;-6.312;2023-05-27T16:19:54;4.38;;;2.08;;
64342;SDS011;50675;53.530;-6.312;2023-05-27T16:22:21;8.55;;;2.28;;
64342;SDS011;50675;53.530;-6.312;2023-05-27T16:24:47;4.60;;;2.00;;
64342;SDS011;50675;53.530;-6.312;2023-05-27T16:27:13;5.90;;;2.45;;
64342;SDS011;50675;53.530;-6.312;2023-05-27T16:29:39;4.95;;;2.03;;
64342;SDS011;50675;53.530;-6.312;2023-05-27T16:32:05;3.45;;;2.13;;
64342;SDS011;50675;53.530;-6.312;2023-05-27T16:34:31;5.38;;;2.28;;
64342;SDS011;50675;53.530;-6.312;2023-05-27T16:36:57;5.32;;;2.15;;
64342;SDS011;50675;53.530;-6.312;2023-05-27T16:39:23;5.35;;;2.67;;
64342;SDS011;50675;53.530;-6.312;2023-05-27T16:41:49;5.38;;;2.10;;
64342;SDS011;50675;53.530;-6.312;2023-05-27T16:44:17;6.03;;;2.42;;
64342;SDS011;50675;53.530;-6.312;2023-05-27T16:46:43;6.30;;;2.40;;
64342;SDS011;50675;53.530;-6.312;2023-05-27T16:49:08;4.90;;;1.90;;
64342;SDS011;50675;53.530;-6.312;2023-05-27T16:51:34;5.10;;;1.90;;
64342;SDS011;50675;53.530;-6.312;2023-05-27T16:54:01;5.25;;;2.17;;
64342;SDS011;50675;53.530;-6.312;2023-05-27T16:56:29;5.38;;;2.55;;
64342;SDS011;50675;53.530;-6.312;2023-05-27T16:58:55;3.60;;;1.95;;
64342;SDS011;50675;53.530;-6.312;2023-05-27T17:01:21;4.30;;;2.17;;
64342;SDS011;50675;53.530;-6.312;2023-05-27T17:03:48;5.05;;;2.10;;
64342;SDS011;50675;53.530;-6.312;2023-05-27T17:06:14;3.47;;;2.10;;